Time;durP1;ratioP1;P1;durP2;ratioP2;P2;SDS_P1;SDS_P2;PMS_P1;PMS_P2;Temp;Humidity;BMP_temperature;BMP_pressure;BME280_temperature;BME280_humidity;BME280_pressure;Samples;Min_cycle;Max_cycle;Signal;HPM_P1;HPM_P2
2022/07/13 00:01:22;;;;;;;12.20;7.85;;;;;;;;;;5050174;28;20037;-71
2022/07/13 00:03:50;;;;;;;9.93;7.93;;;;;;;;;;5049788;28;20040;-71
2022/07/13 00:06:16;;;;;;;13.00;8.15;;;;;;;;;;5055180;28;20067;-71
2022/07/13 00:08:42;;;;;;;15.00;8.57;;;;;;;;;;5055286;28;20052;-71
2022/07/13 00:11:08;;;;;;;8.88;7.53;;;;;;;;;;5054060;28;20041;-71
2022/07/13 00:13:34;;;;;;;10.63;8.98;;;;;;;;;;5054251;28;20462;-72
2022/07/13 00:16:02;;;;;;;8.20;7.10;;;;;;;;;;5054920;28;20052;-73
2022/07/13 00:18:30;;;;;;;10.48;7.05;;;;;;;;;;5053779;28;20072;-73
2022/07/13 00:21:00;;;;;;;8.63;7.65;;;;;;;;;;5054086;28;20072;-71
2022/07/13 00:23:28;;;;;;;7.68;6.93;;;;;;;;;;5054111;28;20123;-71
2022/07/13 00:25:54;;;;;;;8.73;6.85;;;;;;;;;;5054979;28;20099;-71
2022/07/13 00:28:26;;;;;;;8.52;7.63;;;;;;;;;;5053566;28;20528;-71
2022/07/13 00:30:58;;;;;;;9.70;7.80;;;;;;;;;;5053662;28;20037;-71
2022/07/13 00:33:27;;;;;;;8.73;7.40;;;;;;;;;;5054992;28;20079;-71
2022/07/13 00:35:58;;;;;;;11.25;7.88;;;;;;;;;;5053307;28;20095;-70
2022/07/13 00:38:38;;;;;;;10.93;7.15;;;;;;;;;;5054776;28;20567;-71
2022/07/13 00:41:12;;;;;;;12.43;7.95;;;;;;;;;;5054964;28;20051;-70
2022/07/13 00:43:45;;;;;;;8.02;6.22;;;;;;;;;;5054800;28;20036;-72
2022/07/13 00:46:14;;;;;;;8.57;6.90;;;;;;;;;;5054418;28;20512;-71
2022/07/13 00:48:43;;;;;;;6.65;5.88;;;;;;;;;;5054747;28;20048;-71
2022/07/13 00:51:10;;;;;;;7.95;6.97;;;;;;;;;;5053237;28;20040;-71
2022/07/13 00:53:41;;;;;;;9.85;7.20;;;;;;;;;;5053548;28;20040;-71
2022/07/13 00:56:10;;;;;;;9.98;7.20;;;;;;;;;;5054325;28;20048;-71
2022/07/13 00:58:37;;;;;;;7.75;6.47;;;;;;;;;;5053134;28;20052;-71
2022/07/13 01:01:04;;;;;;;8.35;7.40;;;;;;;;;;5053394;28;20444;-72
2022/07/13 01:03:31;;;;;;;14.30;8.65;;;;;;;;;;5053145;28;20037;-71
2022/07/13 01:05:58;;;;;;;8.80;6.80;;;;;;;;;;5052728;28;20048;-72
2022/07/13 01:08:26;;;;;;;9.18;8.00;;;;;;;;;;5054252;28;20041;-71
2022/07/13 01:10:53;;;;;;;9.93;7.30;;;;;;;;;;5053026;28;20044;-71
2022/07/13 01:13:20;;;;;;;8.98;7.60;;;;;;;;;;5054052;28;20049;-71
2022/07/13 01:15:47;;;;;;;8.25;6.90;;;;;;;;;;5052229;28;20517;-71
2022/07/13 01:18:14;;;;;;;9.77;7.85;;;;;;;;;;5052612;28;20045;-73
2022/07/13 01:20:45;;;;;;;11.57;7.57;;;;;;;;;;5053002;28;20044;-71
2022/07/13 01:23:12;;;;;;;10.82;8.05;;;21.10;99.90;;;;;;5052947;28;20098;-71
2022/07/13 01:25:39;;;;;;;11.43;8.35;;;21.00;99.90;;;;;;5052242;28;20481;-71
2022/07/13 01:28:04;;;;;;;8.95;7.70;;;21.10;99.90;;;;;;5052425;28;20044;-71
2022/07/13 01:30:30;;;;;;;10.63;8.48;;;21.20;99.90;;;;;;5054033;28;20041;-71
2022/07/13 01:32:56;;;;;;;11.30;8.00;;;21.10;99.90;;;;;;5054019;28;20048;-71
2022/07/13 01:35:23;;;;;;;8.75;7.65;;;21.00;99.90;;;;;;5035601;28;20045;-71
2022/07/13 01:37:49;;;;;;;10.93;8.25;;;21.10;99.90;;;;;;5052394;28;20041;-71
2022/07/13 01:40:15;;;;;;;9.23;8.23;;;21.10;99.90;;;;;;5052540;28;20503;-71
2022/07/13 01:42:45;;;;;;;11.52;8.80;;;21.40;99.90;;;;;;5053903;28;20112;-71
2022/07/13 01:45:13;;;;;;;10.30;8.65;;;21.10;99.90;;;;;;5035682;28;20044;-71
2022/07/13 01:47:39;;;;;;;9.95;8.60;;;21.10;99.90;;;;;;5052275;28;20114;-71
2022/07/13 01:50:07;;;;;;;10.80;9.43;;;21.20;99.90;;;;;;5053662;28;20073;-72
2022/07/13 01:52:33;;;;;;;10.27;9.13;;;21.10;99.90;;;;;;5053781;28;20422;-71
2022/07/13 01:54:59;;;;;;;10.05;8.52;;;21.10;99.90;;;;;;5053183;28;20045;-71
2022/07/13 01:57:24;;;;;;;12.32;8.57;;;21.40;99.90;;;;;;5052174;28;20127;-71
2022/07/13 01:59:51;;;;;;;8.20;6.90;;;21.20;99.90;;;;;;5053616;28;20120;-71
2022/07/13 02:02:17;;;;;;;11.88;10.45;;;21.20;99.90;;;;;;5052103;28;20037;-71
2022/07/13 02:04:43;;;;;;;12.60;9.32;;;21.10;99.90;;;;;;5051666;28;20044;-71
2022/07/13 02:07:09;;;;;;;9.45;8.35;;;21.10;99.90;;;;;;5053246;28;20402;-71
2022/07/13 02:09:34;;;;;;;10.18;8.52;;;21.00;99.90;;;;;;5051758;28;20040;-71
2022/07/13 02:12:00;;;;;;;11.75;9.02;;;21.10;99.90;;;;;;5051786;28;20047;-72
2022/07/13 02:14:25;;;;;;;10.30;8.57;;;21.00;99.90;;;;;;5052911;28;20033;-71
2022/07/13 02:16:51;;;;;;;11.80;9.95;;;21.10;99.90;;;;;;5051856;28;20064;-71
2022/07/13 02:19:17;;;;;;;13.05;8.32;;;21.00;99.90;;;;;;5052876;28;20072;-71
2022/07/13 02:21:42;;;;;;;13.70;9.15;;;21.00;99.90;;;;;;5052961;28;20087;-73
2022/07/13 02:24:09;;;;;;;12.02;9.55;;;;;;;;;;5051442;28;20047;-71
2022/07/13 02:26:35;;;;;;;14.85;9.60;;;;;;;;;;5052523;28;20048;-71
2022/07/13 02:29:01;;;;;;;12.45;8.68;;;;;;;;;;5054780;22;20041;-71
2022/07/13 02:31:27;;;;;;;10.80;8.55;;;;;;;;;;5035062;28;20521;-72
2022/07/13 02:33:53;;;;;;;17.30;11.02;;;;;;;;;;5018599;28;20095;-70
2022/07/13 02:36:19;;;;;;;10.30;8.30;;;;;;;;;;5052947;28;20045;-71
2022/07/13 02:38:45;;;;;;;12.45;8.73;;;;;;;;;;5035439;28;20045;-71
2022/07/13 02:41:13;;;;;;;14.52;10.20;;;;;;;;;;5053122;28;20076;-71
2022/07/13 02:43:39;;;;;;;9.85;8.00;;;;;;;;;;5034906;28;20494;-71
2022/07/13 02:46:05;;;;;;;12.10;9.55;;;;;;;;;;5018122;28;20203;-71
2022/07/13 02:48:33;;;;;;;13.27;9.68;;;;;;;;;;5034784;28;20516;-71
2022/07/13 02:50:59;;;;;;;11.02;8.02;;;;;;;;;;5035110;28;20449;-70
2022/07/13 02:53:25;;;;;;;15.82;10.50;;;20.70;99.90;;;;;;5052477;28;20435;-71
2022/07/13 02:55:51;;;;;;;10.23;8.20;;;20.90;99.90;;;;;;5034394;28;20186;-71
2022/07/13 02:58:17;;;;;;;11.43;8.80;;;20.70;99.90;;;;;;5034369;28;20470;-71
2022/07/13 03:00:42;;;;;;;12.40;9.55;;;21.30;99.90;;;;;;5018233;28;20044;-71
2022/07/13 03:03:08;;;;;;;11.07;9.88;;;20.70;99.90;;;;;;5034731;28;20490;-71
2022/07/13 03:05:33;;;;;;;12.75;9.25;;;20.90;99.90;;;;;;5034327;28;20048;-71
2022/07/13 03:07:59;;;;;;;10.38;9.30;;;20.90;99.90;;;;;;5052284;28;20059;-71
2022/07/13 03:10:24;;;;;;;11.55;8.68;;;21.20;99.90;;;;;;5034667;28;20048;-71
2022/07/13 03:12:50;;;;;;;14.02;10.30;;;20.80;99.90;;;;;;5052472;28;20037;-71
2022/07/13 03:15:16;;;;;;;12.07;9.95;;;20.70;99.90;;;;;;5017640;28;20045;-71
2022/07/13 03:17:41;;;;;;;13.10;10.18;;;20.70;99.90;;;;;;5052238;28;20037;-72
2022/07/13 03:20:08;;;;;;;13.02;10.18;;;21.00;99.90;;;;;;5017804;28;20041;-71
2022/07/13 03:22:34;;;;;;;14.10;10.68;;;20.70;99.90;;;;;;5052103;28;20037;-70
2022/07/13 03:25:00;;;;;;;10.75;8.93;;;20.80;99.90;;;;;;5034168;28;20033;-71
2022/07/13 03:27:25;;;;;;;14.27;11.20;;;21.00;99.90;;;;;;5052043;28;20044;-71
2022/07/13 03:29:51;;;;;;;10.68;9.55;;;20.60;99.90;;;;;;5034050;28;20040;-71
2022/07/13 03:32:17;;;;;;;12.80;10.50;;;20.60;99.90;;;;;;5034143;28;20397;-71
2022/07/13 03:34:42;;;;;;;10.90;9.68;;;20.60;99.90;;;;;;5051745;28;20130;-71
2022/07/13 03:37:08;;;;;;;14.80;9.88;;;20.80;99.90;;;;;;5034205;28;20127;-71
2022/07/13 03:39:34;;;;;;;12.25;10.82;;;20.80;99.90;;;;;;5033996;28;20087;-71
2022/07/13 03:42:00;;;;;;;12.32;9.90;;;20.70;99.90;;;;;;5052031;28;20504;-71
2022/07/13 03:44:26;;;;;;;12.30;10.88;;;21.10;99.90;;;;;;5033854;28;20511;-71
2022/07/13 03:46:51;;;;;;;11.48;9.30;;;20.70;99.90;;;;;;5034206;28;20509;-71
2022/07/13 03:49:17;;;;;;;12.93;10.07;;;20.40;99.90;;;;;;5033823;28;20045;-71
2022/07/13 03:51:43;;;;;;;14.75;11.20;;;21.00;99.90;;;;;;5051663;28;20048;-71
2022/07/13 03:54:08;;;;;;;12.27;9.32;;;20.80;99.90;;;;;;5033750;28;20502;-71
2022/07/13 03:56:34;;;;;;;12.70;10.20;;;20.80;99.90;;;;;;5051730;28;20124;-71
2022/07/13 03:59:00;;;;;;;12.45;10.02;;;20.60;99.90;;;;;;5033631;28;20073;-71
2022/07/13 04:01:26;;;;;;;13.43;10.77;;;21.20;99.90;;;;;;5033630;28;20036;-71
2022/07/13 04:03:52;;;;;;;12.98;9.73;;;20.80;99.90;;;;;;5033609;28;20040;-71
2022/07/13 04:06:18;;;;;;;12.07;9.10;;;20.60;99.90;;;;;;5033987;28;20430;-71
2022/07/13 04:08:43;;;;;;;11.60;9.90;;;20.80;99.90;;;;;;5033623;28;20723;-71
2022/07/13 04:11:09;;;;;;;13.07;10.07;;;20.70;99.90;;;;;;5051635;28;20048;-71
2022/07/13 04:13:35;;;;;;;13.25;10.40;;;20.60;99.90;;;;;;5051926;28;20460;-71
2022/07/13 04:16:00;;;;;;;13.55;10.27;;;21.00;99.90;;;;;;5033547;28;20041;-71
2022/07/13 04:18:26;;;;;;;13.18;11.18;;;21.50;99.90;;;;;;5033817;28;20103;-71
2022/07/13 04:20:51;;;;;;;12.10;9.75;;;20.80;99.90;;;;;;5033871;28;20033;-71
2022/07/13 04:23:17;;;;;;;11.82;9.80;;;20.80;99.90;;;;;;5033639;28;20033;-71
2022/07/13 04:25:44;;;;;;;13.10;10.25;;;20.70;99.90;;;;;;5051292;28;20108;-71
2022/07/13 04:28:09;;;;;;;13.85;11.18;;;21.00;99.90;;;;;;5034388;28;20040;-71
2022/07/13 04:30:35;;;;;;;11.23;9.40;;;20.70;99.90;;;;;;5033987;28;20049;-72
2022/07/13 04:33:01;;;;;;;13.43;9.73;;;20.90;99.90;;;;;;5051508;28;20033;-71
2022/07/13 04:35:26;;;;;;;11.73;10.48;;;20.30;99.90;;;;;;5050890;28;20487;-71
2022/07/13 04:37:52;;;;;;;12.45;10.38;;;21.50;99.90;;;;;;5033363;28;20041;-71
2022/07/13 04:40:18;;;;;;;14.43;10.15;;;21.30;99.90;;;;;;5017168;28;20120;-71
2022/07/13 04:42:44;;;;;;;14.00;9.60;;;20.70;99.90;;;;;;5051645;28;20120;-72
2022/07/13 04:45:10;;;;;;;13.75;10.10;;;20.80;99.90;;;;;;5033197;28;20071;-71
2022/07/13 04:47:36;;;;;;;14.98;11.05;;;20.80;99.90;;;;;;5033710;28;20471;-71
2022/07/13 04:50:02;;;;;;;13.32;9.60;;;20.90;99.90;;;;;;5030803;28;20048;-71
2022/07/13 04:52:27;;;;;;;13.23;10.18;;;20.90;99.90;;;;;;5033326;28;20405;-71
2022/07/13 04:54:53;;;;;;;12.18;10.90;;;21.00;99.90;;;;;;5016662;28;20045;-69
2022/07/13 04:57:18;;;;;;;13.50;9.63;;;20.90;99.90;;;;;;5033689;28;20488;-73
2022/07/13 04:59:44;;;;;;;15.27;9.55;;;21.10;99.90;;;;;;5051258;28;20668;-71
2022/07/13 05:02:09;;;;;;;11.15;9.55;;;20.70;99.90;;;;;;5027236;28;20048;-71
2022/07/13 05:04:35;;;;;;;12.43;9.00;;;20.80;99.90;;;;;;5033196;28;20048;-71
2022/07/13 05:07:01;;;;;;;13.57;9.77;;;20.60;99.90;;;;;;5051236;28;20032;-71
2022/07/13 05:09:26;;;;;;;13.15;10.35;;;20.60;99.90;;;;;;5033302;28;20063;-71
2022/07/13 05:11:52;;;;;;;15.25;10.38;;;20.80;99.90;;;;;;5033411;28;20036;-71
2022/07/13 05:14:18;;;;;;;14.05;9.57;;;20.90;99.90;;;;;;5031654;28;20044;-72
2022/07/13 05:16:43;;;;;;;19.88;10.88;;;21.00;99.90;;;;;;5034704;28;20040;-72
2022/07/13 05:19:10;;;;;;;12.20;9.25;;;20.70;99.90;;;;;;5032948;28;20120;-71
2022/07/13 05:21:36;;;;;;;12.77;10.00;;;20.90;99.90;;;;;;5016546;28;20083;-71
2022/07/13 05:24:02;;;;;;;12.07;9.07;;;21.20;99.90;;;;;;5032819;28;20478;-69
2022/07/13 05:26:28;;;;;;;14.82;9.68;;;20.90;99.90;;;;;;5016326;28;20045;-71
2022/07/13 05:28:53;;;;;;;12.82;9.30;;;21.40;99.90;;;;;;5050985;28;20128;-72
2022/07/13 05:31:19;;;;;;;15.43;9.35;;;21.00;99.90;;;;;;5030283;28;20456;-71
2022/07/13 05:33:44;;;;;;;12.15;8.15;;;21.00;99.90;;;;;;5043178;28;20045;-71
2022/07/13 05:36:10;;;;;;;14.48;8.73;;;21.10;99.90;;;;;;5031195;28;20056;-72
2022/07/13 05:38:36;;;;;;;11.80;8.98;;;20.90;99.90;;;;;;5042296;28;20041;-71
2022/07/13 05:41:02;;;;;;;11.30;9.30;;;21.00;99.90;;;;;;5014995;28;20494;-71
2022/07/13 05:43:28;;;;;;;9.35;7.53;;;21.00;99.90;;;;;;5006947;28;20037;-72
2022/07/13 05:45:53;;;;;;;10.02;8.70;;;21.00;99.90;;;;;;5014648;28;20501;-71
2022/07/13 05:48:19;;;;;;;11.75;8.23;;;21.10;99.90;;;;;;5026148;28;20032;-71
2022/07/13 05:50:45;;;;;;;10.02;8.45;;;21.10;99.90;;;;;;5025388;28;20098;-70
2022/07/13 05:53:11;;;;;;;11.88;9.73;;;21.10;99.90;;;;;;5048206;28;20036;-71
2022/07/13 05:55:36;;;;;;;12.82;8.73;;;21.00;99.90;;;;;;5027144;28;20036;-71
2022/07/13 05:58:02;;;;;;;9.10;7.88;;;21.40;99.90;;;;;;5031170;28;20041;-72
2022/07/13 06:00:28;;;;;;;12.52;8.93;;;21.10;99.90;;;;;;5020334;28;20037;-71
2022/07/13 06:02:53;;;;;;;10.77;9.18;;;21.20;99.90;;;;;;5014190;28;20037;-71
2022/07/13 06:05:19;;;;;;;12.93;8.93;;;21.30;99.90;;;;;;5048347;28;20117;-69
2022/07/13 06:07:45;;;;;;;13.70;9.15;;;21.30;99.90;;;;;;5049974;28;20083;-72
2022/07/13 06:10:11;;;;;;;13.90;8.43;;;21.40;99.90;;;;;;5049841;28;20048;-72
2022/07/13 06:12:37;;;;;;;16.40;10.20;;;21.40;99.90;;;;;;5049866;28;20761;-71
2022/07/13 06:15:03;;;;;;;14.27;8.20;;;21.90;99.90;;;;;;5049605;28;20108;-71
2022/07/13 06:17:29;;;;;;;12.70;9.05;;;21.50;99.90;;;;;;5049650;28;20526;-73
2022/07/13 06:19:54;;;;;;;10.23;8.38;;;21.90;99.90;;;;;;5049934;28;20048;-71
2022/07/13 06:22:21;;;;;;;11.88;8.68;;;21.70;99.90;;;;;;5031763;28;20037;-71
2022/07/13 06:24:46;;;;;;;13.35;8.55;;;21.70;99.90;;;;;;5031859;28;20171;-71
2022/07/13 06:27:13;;;;;;;13.23;9.43;;;21.80;99.90;;;;;;5031706;28;20120;-71
2022/07/13 06:29:38;;;;;;;17.17;9.05;;;21.60;99.90;;;;;;5031921;28;20098;-69
2022/07/13 06:32:04;;;;;;;13.13;8.95;;;21.80;99.90;;;;;;5012000;28;20749;-74
2022/07/13 06:34:30;;;;;;;13.93;8.90;;;21.50;99.90;;;;;;5031368;28;20442;-71
2022/07/13 06:36:56;;;;;;;14.00;8.63;;;21.80;99.90;;;;;;5031516;28;20037;-70
2022/07/13 06:39:22;;;;;;;13.13;8.63;;;21.80;99.90;;;;;;5049175;28;20128;-70
2022/07/13 06:41:47;;;;;;;14.45;8.32;;;21.70;99.90;;;;;;5048770;28;20065;-71
2022/07/13 06:44:13;;;;;;;12.50;8.52;;;21.90;99.90;;;;;;5038911;28;20110;-71
2022/07/13 06:46:38;;;;;;;11.75;8.43;;;22.10;99.90;;;;;;5046224;28;20041;-71
2022/07/13 06:49:04;;;;;;;12.88;8.40;;;22.40;99.90;;;;;;5031193;28;20040;-71
2022/07/13 06:51:30;;;;;;;14.93;9.05;;;22.20;99.90;;;;;;5048978;28;20040;-72
2022/07/13 06:53:55;;;;;;;12.15;7.85;;;22.40;99.90;;;;;;5048791;28;20037;-72
2022/07/13 06:56:21;;;;;;;11.48;8.38;;;22.50;99.90;;;;;;5031013;28;20679;-71
2022/07/13 06:58:48;;;;;;;9.93;8.15;;;22.90;99.90;;;;;;5016779;28;20033;-71
2022/07/13 07:01:13;;;;;;;14.48;8.93;;;23.50;99.90;;;;;;5033144;28;20029;-71
2022/07/13 07:03:39;;;;;;;13.52;8.60;;;23.00;99.90;;;;;;5034122;28;20025;-71
2022/07/13 07:06:05;;;;;;;11.98;8.48;;;23.00;99.90;;;;;;5051533;28;20044;-71
2022/07/13 07:08:30;;;;;;;11.45;8.68;;;22.80;99.90;;;;;;5017049;28;20478;-72
2022/07/13 07:10:56;;;;;;;13.18;8.32;;;23.40;99.90;;;;;;5051634;28;20116;-71
2022/07/13 07:13:24;;;;;;;14.27;7.78;;;;;;;;;;5016581;28;20211;-71
2022/07/13 07:15:51;;;;;;;12.38;7.05;;;;;;;;;;5033602;28;20520;-71
2022/07/13 07:18:17;;;;;;;9.73;7.80;;;23.40;99.90;;;;;;5015508;28;20052;-71
2022/07/13 07:20:43;;;;;;;9.95;6.70;;;23.50;99.90;;;;;;5057025;28;20033;-71
2022/07/13 07:23:09;;;;;;;10.90;7.00;;;23.40;99.90;;;;;;5033627;28;20065;-71
2022/07/13 07:25:34;;;;;;;8.13;6.70;;;23.60;99.90;;;;;;5046606;28;20107;-72
2022/07/13 07:28:00;;;;;;;11.10;6.30;;;23.70;99.90;;;;;;5072079;28;20036;-72
2022/07/13 07:30:26;;;;;;;9.25;6.85;;;23.70;99.90;;;;;;5043952;28;20045;-70
2022/07/13 07:32:51;;;;;;;13.23;7.15;;;23.70;99.90;;;;;;5032478;28;20037;-71
2022/07/13 07:35:17;;;;;;;9.85;5.80;;;23.70;99.90;;;;;;5051235;28;20041;-71
2022/07/13 07:37:43;;;;;;;10.35;7.22;;;23.80;99.90;;;;;;5045342;28;20041;-72
2022/07/13 07:40:11;;;;;;;10.75;6.63;;;23.90;99.90;;;;;;5071847;28;20047;-71
2022/07/13 07:42:36;;;;;;;9.35;6.50;;;23.90;99.90;;;;;;5071690;28;20047;-71
2022/07/13 07:45:06;;;;;;;12.50;6.05;;;23.80;99.90;;;;;;5071362;28;20032;-71
2022/07/13 07:47:32;;;;;;;7.68;4.97;;;24.20;99.90;;;;;;5053621;28;20068;-71
2022/07/13 07:49:58;;;;;;;10.07;6.45;;;24.70;99.90;;;;;;5039476;28;20438;-71
2022/07/13 07:52:23;;;;;;;7.63;5.65;;;24.10;99.90;;;;;;5051078;28;20494;-72
2022/07/13 07:54:49;;;;;;;8.98;5.28;;;24.00;99.90;;;;;;5032398;28;20401;-71
2022/07/13 07:57:14;;;;;;;9.45;4.50;;;25.30;99.90;;;;;;5033359;28;20044;-71
2022/07/13 07:59:41;;;;;;;9.98;4.80;;;24.60;99.90;;;;;;5051370;28;20400;-72
2022/07/13 08:02:10;;;;;;;8.52;5.45;;;24.70;99.90;;;;;;5016529;28;20448;-72
2022/07/13 08:04:36;;;;;;;11.48;6.25;;;24.60;99.90;;;;;;5051391;28;20037;-72
2022/07/13 08:07:02;;;;;;;8.35;5.00;;;24.80;99.90;;;;;;5050816;28;20112;-71
2022/07/13 08:09:27;;;;;;;9.07;5.20;;;25.00;99.90;;;;;;5031808;28;20048;-72
2022/07/13 08:11:53;;;;;;;7.70;4.40;;;24.70;99.90;;;;;;5014063;28;20134;-71
2022/07/13 08:14:19;;;;;;;8.20;4.47;;;24.70;99.90;;;;;;5063371;28;20049;-71
2022/07/13 08:16:45;;;;;;;10.77;4.72;;;24.30;99.90;;;;;;5071085;28;20079;-70
2022/07/13 08:19:10;;;;;;;9.57;4.60;;;24.60;99.90;;;;;;5038551;28;20545;-71
2022/07/13 08:21:36;;;;;;;11.63;6.40;;;24.50;99.90;;;;;;5051504;28;20036;-71
2022/07/13 08:24:02;;;;;;;9.32;4.80;;;24.60;99.90;;;;;;5016704;28;20154;-70
2022/07/13 08:26:29;;;;;;;11.27;5.35;;;24.80;99.90;;;;;;5035293;28;20033;-71
2022/07/13 08:28:57;;;;;;;13.05;5.53;;;25.80;99.90;;;;;;5037254;28;20506;-70
2022/07/13 08:31:24;;;;;;;8.02;3.65;;;25.20;99.90;;;;;;5085843;23;20044;-69
2022/07/13 08:39:20;;;;;;;10.02;3.78;;;25.50;99.90;;;;;;5096829;28;20043;-70
2022/07/13 08:41:46;;;;;;;8.73;4.10;;;25.10;99.90;;;;;;5077600;28;20382;-71
2022/07/13 08:44:12;;;;;;;8.00;5.15;;;25.20;99.90;;;;;;5075949;28;20032;-70
2022/07/13 08:46:38;;;;;;;8.27;4.22;;;24.90;99.90;;;;;;5094570;28;20100;-69
2022/07/13 08:49:05;;;;;;;6.63;3.67;;;25.30;99.90;;;;;;5060016;28;20469;-69
2022/07/13 08:51:32;;;;;;;7.07;3.88;;;26.10;99.90;;;;;;5059325;28;20039;-69
2022/07/13 08:53:59;;;;;;;9.35;4.50;;;25.40;99.90;;;;;;5094260;28;20085;-69
2022/07/13 08:56:25;;;;;;;6.32;3.70;;;25.70;99.90;;;;;;5094243;28;20044;-71
2022/07/13 08:58:52;;;;;;;8.57;4.80;;;25.60;99.90;;;;;;5075993;28;20646;-70
2022/07/13 09:01:19;;;;;;;7.45;4.10;;;25.50;99.90;;;;;;5076378;28;20048;-70
2022/07/13 09:03:45;;;;;;;6.45;4.40;;;25.50;99.90;;;;;;5058682;28;20085;-70
2022/07/13 09:06:43;;;;;;;6.78;3.65;;;26.60;99.90;;;;;;5058191;28;20063;-69
2022/07/13 09:09:33;;;;;;;8.07;3.90;;;25.80;99.90;;;;;;5075177;28;20262;-69
2022/07/13 09:12:12;;;;;;;6.45;3.75;;;25.90;99.90;;;;;;5075946;28;20051;-69
2022/07/13 09:14:38;;;;;;;9.43;3.92;;;25.70;99.90;;;;;;5106108;28;20465;-70
2022/07/13 09:17:04;;;;;;;8.93;4.18;;;26.40;99.90;;;;;;5075908;28;20526;-69
2022/07/13 09:19:36;;;;;;;7.28;3.80;;;25.60;99.90;;;;;;5075965;28;20043;-70
2022/07/13 09:22:12;;;;;;;7.38;3.30;;;26.20;99.90;;;;;;5058565;28;20043;-70
2022/07/13 09:24:43;;;;;;;4.40;2.72;;;26.30;99.90;;;;;;5075796;28;20489;-70
2022/07/13 09:27:10;;;;;;;4.60;2.72;;;26.50;99.90;;;;;;5075197;28;20040;-70
2022/07/13 09:29:38;;;;;;;4.90;2.83;;;26.50;99.90;;;;;;5074864;28;20036;-71
2022/07/13 09:32:11;;;;;;;4.57;3.33;;;26.80;99.90;;;;;;5093951;28;20059;-70
2022/07/13 09:34:46;;;;;;;4.65;2.80;;;26.50;99.90;;;;;;5074707;28;20032;-70
2022/07/13 09:37:14;;;;;;;4.00;2.53;;;26.10;99.90;;;;;;5075426;28;20047;-71
2022/07/13 09:40:08;;;;;;;8.38;2.83;;;26.20;99.90;;;;;;5074957;28;20063;-69
2022/07/13 09:42:38;;;;;;;6.28;2.50;;;26.40;99.90;;;;;;5093601;28;20036;-70
2022/07/13 09:47:53;;;;;;;3.78;2.67;;;26.50;99.90;;;;;;5074648;28;20063;-70
2022/07/13 09:50:24;;;;;;;4.22;2.60;;;26.30;99.90;;;;;;5075398;28;20555;-70
2022/07/13 09:52:51;;;;;;;2.58;2.38;;;26.40;99.90;;;;;;5093754;28;20154;-70
2022/07/13 09:55:22;;;;;;;7.25;3.42;;;26.90;99.90;;;;;;5075014;28;20072;-71
2022/07/13 09:57:54;;;;;;;4.88;2.88;;;26.80;99.90;;;;;;5075433;28;20040;-70
2022/07/13 10:00:21;;;;;;;2.38;1.98;;;26.80;99.90;;;;;;5092776;28;20067;-70
2022/07/13 10:02:48;;;;;;;3.63;2.42;;;27.20;99.90;;;;;;5075533;28;20040;-70
2022/07/13 10:05:18;;;;;;;7.07;2.97;;;26.40;99.90;;;;;;5074893;28;20036;-70
2022/07/13 10:07:45;;;;;;;5.85;2.60;;;26.50;99.90;;;;;;5075203;28;20035;-71
2022/07/13 10:10:13;;;;;;;6.78;2.88;;;26.60;99.90;;;;;;5093266;28;20039;-70
2022/07/13 10:12:39;;;;;;;3.85;2.40;;;26.70;99.90;;;;;;5057842;28;20497;-70
2022/07/13 10:15:06;;;;;;;3.65;2.20;;;26.80;99.90;;;;;;5112207;28;20043;-70
2022/07/13 10:17:32;;;;;;;4.03;3.00;;;26.80;99.90;;;;;;5095040;28;20043;-70
2022/07/13 10:20:05;;;;;;;6.57;4.90;;;27.00;99.90;;;;;;5084260;28;20035;-70
2022/07/13 10:22:35;;;;;;;7.78;3.60;;;26.90;99.90;;;;;;5074501;28;20085;-71
2022/07/13 10:25:01;;;;;;;8.50;2.95;;;26.90;99.90;;;;;;5092514;28;20036;-70
2022/07/13 10:27:31;;;;;;;5.57;3.20;;;27.00;99.90;;;;;;5092190;28;20039;-70
2022/07/13 10:30:00;;;;;;;5.38;3.35;;;26.60;99.90;;;;;;5092342;28;20032;-70
2022/07/13 10:32:31;;;;;;;5.45;2.55;;;26.70;99.90;;;;;;5074742;28;20126;-70
2022/07/13 10:35:01;;;;;;;8.80;3.30;;;26.60;99.90;;;;;;5073988;28;20058;-70
2022/07/13 10:37:27;;;;;;;5.57;2.80;;;26.80;99.90;;;;;;5074515;28;20036;-70
2022/07/13 10:40:12;;;;;;;3.05;2.33;;;27.20;99.90;;;;;;5071597;28;20109;-70
2022/07/13 10:42:53;;;;;;;4.47;3.03;;;27.50;99.90;;;;;;5069308;28;20412;-69
2022/07/13 10:45:39;;;;;;;5.03;3.83;;;27.40;99.90;;;;;;5070347;28;20122;-70
2022/07/13 10:48:16;;;;;;;5.07;3.35;;;27.30;99.90;;;;;;5064009;28;20086;-70
2022/07/13 10:50:52;;;;;;;4.43;3.20;;;27.10;99.90;;;;;;5068288;28;20054;-70
2022/07/13 10:53:19;;;;;;;4.30;2.67;;;27.10;99.90;;;;;;5069962;28;20040;-70
2022/07/13 10:55:49;;;;;;;4.35;2.20;;;27.50;99.90;;;;;;5070420;28;20047;-68
2022/07/13 10:58:39;;;;;;;4.97;2.40;;;27.00;99.90;;;;;;5071327;28;20115;-70
2022/07/13 11:01:30;;;;;;;2.80;2.45;;;26.90;99.90;;;;;;5083802;28;20867;-70
2022/07/13 11:03:56;;;;;;;4.45;2.40;;;26.80;99.90;;;;;;5060469;28;20480;-70
2022/07/13 11:06:23;;;;;;;3.40;2.35;;;26.80;99.90;;;;;;5071812;28;20039;-71
2022/07/13 11:09:13;;;;;;;4.55;1.88;;;27.00;99.90;;;;;;5051642;28;20035;-71
2022/07/13 11:11:47;;;;;;;5.97;2.55;;;27.00;99.90;;;;;;5072026;28;20520;-71
2022/07/13 11:14:41;;;;;;;6.78;2.40;;;27.50;99.90;;;;;;5091956;28;20044;-71
2022/07/13 11:17:11;;;;;;;2.72;2.13;;;27.30;99.90;;;;;;5072183;28;20488;-71
2022/07/13 11:19:51;;;;;;;6.60;2.75;;;;;;;;;;5072831;28;20040;-72
2022/07/13 11:22:16;;;;;;;3.67;2.28;;;27.30;97.30;;;;;;5089175;28;20105;-71
2022/07/13 11:27:54;;;;;;;2.05;1.80;;;26.80;96.70;;;;;;5072973;28;20047;-71
2022/07/13 11:30:29;;;;;;;2.40;1.80;;;26.50;97.40;;;;;;5072287;28;20036;-70
2022/07/13 11:32:55;;;;;;;4.07;2.10;;;26.60;97.40;;;;;;5072352;28;20040;-71
2022/07/13 11:35:22;;;;;;;2.50;1.92;;;26.30;98.00;;;;;;5055715;28;20071;-71
2022/07/13 11:37:48;;;;;;;3.85;2.30;;;26.20;98.80;;;;;;5073497;28;20048;-71
2022/07/13 11:40:27;;;;;;;3.30;2.05;;;26.50;98.10;;;;;;5090692;28;20115;-71
2022/07/13 11:42:53;;;;;;;2.78;1.80;;;26.20;97.90;;;;;;5072861;28;20390;-71
2022/07/13 11:45:30;;;;;;;5.65;2.58;;;27.00;98.50;;;;;;5072494;28;20529;-71
2022/07/13 11:48:06;;;;;;;4.00;2.75;;;26.50;99.60;;;;;;5090675;28;20069;-71
2022/07/13 11:50:42;;;;;;;3.15;2.20;;;26.20;99.90;;;;;;5056124;28;20044;-71
2022/07/13 11:53:08;;;;;;;5.32;2.40;;;26.40;99.90;;;;;;5091150;28;20093;-71
2022/07/13 11:55:36;;;;;;;4.68;2.80;;;27.30;99.90;;;;;;5072638;28;20024;-71
2022/07/13 11:58:03;;;;;;;5.60;3.20;;;26.20;99.90;;;;;;5055347;28;20044;-71
2022/07/13 12:00:30;;;;;;;7.00;2.85;;;25.90;99.90;;;;;;5090293;28;20036;-71
2022/07/13 12:02:56;;;;;;;5.95;2.60;;;26.00;99.90;;;;;;5090724;28;20515;-71
2022/07/13 12:05:27;;;;;;;4.75;2.47;;;25.70;99.70;;;;;;5070541;28;20119;-71
2022/07/13 12:08:05;;;;;;;6.03;2.33;;;25.90;99.90;;;;;;5054929;28;20420;-71
2022/07/13 12:10:34;;;;;;;2.72;2.30;;;26.20;99.90;;;;;;5090286;28;20040;-71
2022/07/13 12:12:59;;;;;;;6.18;2.45;;;26.10;99.90;;;;;;5072292;28;20036;-71
2022/07/13 12:15:26;;;;;;;6.80;2.67;;;27.50;99.90;;;;;;5090084;28;20511;-71
2022/07/13 12:17:54;;;;;;;3.72;2.17;;;26.70;99.90;;;;;;5071799;28;20570;-71
2022/07/13 12:20:22;;;;;;;5.70;2.10;;;25.70;99.70;;;;;;5090103;28;20068;-71
2022/07/13 12:22:56;;;;;;;4.05;2.10;;;26.80;99.90;;;;;;5072041;28;20083;-71
2022/07/13 12:25:28;;;;;;;25.98;2.88;;;26.90;99.90;;;;;;5090206;28;20489;-71
2022/07/13 12:27:55;;;;;;;7.07;2.47;;;25.80;99.90;;;;;;5071526;28;20040;-71
2022/07/13 12:30:21;;;;;;;5.03;2.47;;;26.60;99.90;;;;;;5071676;28;20048;-71
2022/07/13 12:33:09;;;;;;;4.97;2.30;;;25.80;99.90;;;;;;5090222;28;20087;-72
2022/07/13 12:35:37;;;;;;;8.52;2.35;;;27.40;99.90;;;;;;5051718;28;20043;-71
2022/07/13 12:38:08;;;;;;;4.00;2.55;;;25.50;99.90;;;;;;5070232;28;20037;-71
2022/07/13 12:40:43;;;;;;;3.67;2.25;;;24.80;99.90;;;;;;5053045;28;20032;-71
2022/07/13 12:43:25;;;;;;;7.30;2.80;;;26.20;99.90;;;;;;5072601;28;20085;-71
2022/07/13 12:45:53;;;;;;;4.25;2.53;;;25.30;99.90;;;;;;5054620;28;20040;-71
2022/07/13 12:48:24;;;;;;;5.53;2.35;;;25.50;99.90;;;;;;5071983;28;20040;-71
2022/07/13 12:50:58;;;;;;;6.88;2.83;;;25.70;99.90;;;;;;5072448;28;20043;-71
2022/07/13 12:53:25;;;;;;;6.90;2.90;;;26.00;99.90;;;;;;5055299;28;20047;-71
2022/07/13 12:55:55;;;;;;;6.45;3.38;;;25.60;99.90;;;;;;5089809;28;20127;-71
2022/07/13 12:58:40;;;;;;;6.55;2.65;;;26.70;99.90;;;;;;5089961;28;20176;-70
2022/07/13 13:01:06;;;;;;;6.65;3.00;;;25.70;99.90;;;;;;5071088;28;20044;-71
2022/07/13 13:03:32;;;;;;;7.25;2.75;;;25.70;99.90;;;;;;5072012;28;20028;-70
2022/07/13 13:05:57;;;;;;;8.68;2.83;;;26.10;99.90;;;;;;5090168;28;20119;-71
2022/07/13 13:08:23;;;;;;;5.00;2.65;;;25.60;99.90;;;;;;5090928;28;20039;-71
2022/07/13 13:10:48;;;;;;;7.15;2.50;;;26.00;99.90;;;;;;5090230;28;20115;-71